Time;durP1;ratioP1;P1;durP2;ratioP2;P2;SDS_P1;SDS_P2;PMS_P1;PMS_P2;Temp;Humidity;BMP_temperature;BMP_pressure;BME280_temperature;BME280_humidity;BME280_pressure;Samples;Min_cycle;Max_cycle;Signal;HPM_P1;HPM_P2
2021/06/22 00:01:51;;;;;;;4.75;1.70;;;15.90;99.90;;;;;;5095031;28;20024;-83
2021/06/22 00:04:17;;;;;;;5.90;1.75;;;15.90;99.90;;;;;;5095034;28;20024;-83
2021/06/22 00:06:43;;;;;;;8.52;1.63;;;15.90;99.90;;;;;;5094754;28;20024;-83
2021/06/22 00:09:09;;;;;;;11.02;2.17;;;15.90;99.90;;;;;;5094867;28;20084;-83
2021/06/22 00:11:35;;;;;;;8.25;1.70;;;15.90;99.90;;;;;;5095043;28;20031;-83
2021/06/22 00:14:01;;;;;;;9.00;2.03;;;15.90;99.90;;;;;;5091310;28;20028;-83
2021/06/22 00:16:27;;;;;;;10.43;2.00;;;15.90;99.90;;;;;;5072854;28;20025;-83
2021/06/22 00:18:53;;;;;;;4.63;1.48;;;15.80;99.90;;;;;;5073892;28;20040;-83
2021/06/22 00:21:18;;;;;;;10.82;1.92;;;15.80;99.90;;;;;;5072842;28;20032;-83
2021/06/22 00:23:44;;;;;;;11.90;2.00;;;15.80;99.90;;;;;;5074547;28;20526;-82
2021/06/22 00:26:10;;;;;;;9.05;1.90;;;15.70;99.90;;;;;;5074218;28;20028;-83
2021/06/22 00:28:36;;;;;;;7.97;1.65;;;15.60;99.90;;;;;;5073157;28;20029;-83
2021/06/22 00:31:01;;;;;;;9.10;1.95;;;15.50;99.90;;;;;;5073888;28;20395;-83
2021/06/22 00:33:27;;;;;;;9.60;2.00;;;15.50;99.90;;;;;;5072854;28;20056;-83
2021/06/22 00:35:53;;;;;;;12.00;2.20;;;15.60;99.90;;;;;;5073866;28;20165;-83
2021/06/22 00:38:18;;;;;;;11.57;1.98;;;15.50;99.90;;;;;;5073812;28;20441;-83
2021/06/22 00:40:44;;;;;;;6.95;1.67;;;15.60;99.90;;;;;;5074155;28;20499;-83
2021/06/22 00:43:10;;;;;;;8.60;1.75;;;15.50;99.90;;;;;;5073954;28;20021;-83
2021/06/22 00:45:36;;;;;;;8.98;2.10;;;15.50;99.90;;;;;;5073093;28;20092;-83
2021/06/22 00:48:02;;;;;;;11.02;1.80;;;15.50;99.90;;;;;;5073163;28;20020;-82
2021/06/22 00:50:28;;;;;;;7.03;1.80;;;15.60;99.90;;;;;;5073790;28;20039;-83
2021/06/22 00:52:54;;;;;;;11.32;2.20;;;15.50;99.90;;;;;;5073957;28;20040;-83
2021/06/22 00:55:30;;;;;;;13.50;2.10;;;15.50;99.90;;;;;;5073666;28;20098;-83
2021/06/22 00:58:04;;;;;;;7.22;1.63;;;15.50;99.90;;;;;;5073601;28;20039;-83
2021/06/22 01:00:31;;;;;;;6.88;1.58;;;15.50;99.90;;;;;;5073258;28;20016;-82
2021/06/22 01:02:58;;;;;;;8.35;1.83;;;15.40;99.90;;;;;;5072445;28;20506;-82
2021/06/22 01:05:25;;;;;;;10.90;2.10;;;15.40;99.90;;;;;;5073437;28;20081;-82
2021/06/22 01:07:53;;;;;;;11.88;2.05;;;15.50;99.90;;;;;;5072055;28;20029;-83
2021/06/22 01:10:19;;;;;;;11.02;1.95;;;15.40;99.90;;;;;;5072034;28;20017;-83
2021/06/22 01:12:45;;;;;;;7.55;1.80;;;15.50;99.90;;;;;;5072660;28;20479;-83
2021/06/22 01:15:20;;;;;;;5.22;1.55;;;15.50;99.90;;;;;;5071473;28;20031;-82
2021/06/22 01:17:46;;;;;;;6.28;1.67;;;15.50;99.90;;;;;;5072420;28;20033;-83
2021/06/22 01:20:13;;;;;;;10.30;1.65;;;15.50;99.90;;;;;;5073144;28;20044;-83
2021/06/22 01:22:46;;;;;;;5.05;1.63;;;15.50;99.90;;;;;;5071800;28;20523;-83
2021/06/22 01:25:13;;;;;;;6.90;1.73;;;15.50;99.90;;;;;;5073256;28;20078;-83
2021/06/22 01:27:39;;;;;;;8.32;1.88;;;15.50;99.90;;;;;;5073247;28;20024;-83
2021/06/22 01:30:07;;;;;;;6.40;1.90;;;15.50;99.90;;;;;;5072440;28;20394;-84
2021/06/22 01:32:32;;;;;;;9.07;1.88;;;15.50;99.90;;;;;;5072914;28;20125;-83
2021/06/22 01:34:58;;;;;;;11.63;3.17;;;15.50;99.90;;;;;;5073137;28;20503;-83
2021/06/22 01:37:24;;;;;;;7.88;1.80;;;15.50;99.90;;;;;;5072696;28;20058;-83
2021/06/22 01:39:51;;;;;;;4.72;1.90;;;15.50;99.90;;;;;;5071159;28;20219;-83
2021/06/22 01:42:16;;;;;;;7.65;1.90;;;15.40;99.90;;;;;;5072836;28;20471;-83
2021/06/22 01:44:46;;;;;;;12.25;2.60;;;15.30;99.90;;;;;;5072284;28;20024;-82
2021/06/22 01:47:12;;;;;;;5.13;2.08;;;15.20;99.90;;;;;;5072367;28;20032;-82
2021/06/22 01:49:37;;;;;;;6.47;1.83;;;15.20;99.90;;;;;;5072709;28;20027;-83
2021/06/22 01:52:03;;;;;;;8.73;1.77;;;15.20;99.90;;;;;;5070873;28;20033;-83
2021/06/22 01:54:29;;;;;;;11.82;2.13;;;15.30;99.90;;;;;;5072808;28;20017;-83
2021/06/22 01:56:55;;;;;;;9.55;1.48;;;15.30;99.90;;;;;;5071322;28;20475;-83
2021/06/22 01:59:21;;;;;;;8.63;2.00;;;15.40;99.90;;;;;;5072155;28;20028;-83
2021/06/22 02:01:46;;;;;;;5.15;2.00;;;15.40;99.90;;;;;;5072573;28;20027;-83
2021/06/22 02:04:12;;;;;;;11.95;1.95;;;15.40;99.90;;;;;;5072709;28;20097;-83
2021/06/22 02:06:39;;;;;;;8.13;2.35;;;15.40;99.90;;;;;;5072599;28;20455;-82
2021/06/22 02:09:05;;;;;;;8.02;1.98;;;15.40;99.90;;;;;;5072473;28;20515;-82
2021/06/22 02:11:31;;;;;;;9.02;1.95;;;15.40;99.90;;;;;;5072423;28;20036;-83
2021/06/22 02:13:56;;;;;;;5.88;2.20;;;15.30;99.90;;;;;;5071684;28;20028;-83
2021/06/22 02:16:22;;;;;;;7.35;2.10;;;15.40;99.90;;;;;;5072188;28;20039;-83
2021/06/22 02:18:48;;;;;;;8.90;2.10;;;15.40;99.90;;;;;;5071998;28;20025;-82
2021/06/22 02:21:14;;;;;;;7.85;1.98;;;15.40;99.90;;;;;;5071962;28;20024;-82
2021/06/22 02:23:40;;;;;;;8.63;2.20;;;15.40;99.90;;;;;;5071117;28;20027;-83
2021/06/22 02:26:06;;;;;;;11.77;2.35;;;15.30;99.90;;;;;;5072532;28;20430;-83
2021/06/22 02:28:33;;;;;;;7.72;2.17;;;15.30;99.90;;;;;;5073749;28;20032;-83
2021/06/22 02:30:59;;;;;;;9.88;2.35;;;15.30;99.90;;;;;;5075581;28;20029;-83
2021/06/22 02:33:26;;;;;;;7.88;1.80;;;15.30;99.90;;;;;;5076258;28;20052;-83
2021/06/22 02:35:52;;;;;;;7.35;1.85;;;15.20;99.90;;;;;;5076501;28;20074;-84
2021/06/22 02:38:19;;;;;;;5.45;2.17;;;15.10;99.90;;;;;;5076355;28;20024;-83
2021/06/22 02:40:45;;;;;;;8.95;2.10;;;15.20;99.90;;;;;;5075954;28;20059;-83
2021/06/22 02:43:13;;;;;;;11.80;2.00;;;15.10;99.90;;;;;;5075050;28;20056;-83
2021/06/22 02:45:39;;;;;;;9.27;2.35;;;15.10;99.90;;;;;;5074558;28;20545;-83
2021/06/22 02:48:05;;;;;;;14.48;2.50;;;15.10;99.90;;;;;;5075727;28;20033;-82
2021/06/22 02:50:31;;;;;;;13.60;2.42;;;15.10;99.90;;;;;;5075965;28;20387;-83
2021/06/22 02:52:57;;;;;;;7.32;2.13;;;15.10;99.90;;;;;;5075937;28;20029;-83
2021/06/22 02:55:23;;;;;;;4.82;1.95;;;15.10;99.90;;;;;;5074789;28;20056;-83
2021/06/22 02:57:54;;;;;;;5.47;1.92;;;15.20;99.90;;;;;;5076113;28;20103;-82
2021/06/22 03:00:23;;;;;;;12.68;2.35;;;15.20;99.90;;;;;;5075442;28;20020;-83
2021/06/22 03:02:50;;;;;;;4.80;1.85;;;15.30;99.90;;;;;;5075818;28;20091;-83
2021/06/22 03:05:16;;;;;;;6.43;1.80;;;15.30;99.90;;;;;;5075828;28;20059;-83
2021/06/22 03:07:42;;;;;;;5.80;1.88;;;15.30;99.90;;;;;;5075863;28;20033;-82
2021/06/22 03:10:11;;;;;;;10.48;1.95;;;15.40;99.90;;;;;;5075680;28;20115;-82
2021/06/22 03:12:37;;;;;;;8.52;2.13;;;15.40;99.90;;;;;;5075034;28;20529;-82
2021/06/22 03:15:05;;;;;;;9.02;2.03;;;15.50;99.90;;;;;;5073687;28;20468;-82
2021/06/22 03:17:31;;;;;;;8.18;1.77;;;15.50;99.90;;;;;;5078910;28;20043;-83
2021/06/22 03:19:56;;;;;;;10.70;2.08;;;15.50;99.90;;;;;;5093327;28;20475;-83
2021/06/22 03:22:22;;;;;;;10.25;2.03;;;15.40;99.90;;;;;;5075518;28;20025;-83
2021/06/22 03:24:48;;;;;;;7.85;1.85;;;15.40;99.90;;;;;;5073958;28;20475;-82
2021/06/22 03:27:13;;;;;;;7.95;1.60;;;15.50;99.90;;;;;;5075595;28;20454;-82
2021/06/22 03:29:39;;;;;;;8.60;1.80;;;15.50;99.90;;;;;;5075280;28;20551;-83
2021/06/22 03:32:05;;;;;;;10.05;2.38;;;15.50;99.90;;;;;;5074790;28;20045;-84
2021/06/22 03:34:31;;;;;;;8.25;1.50;;;15.50;99.90;;;;;;5075429;28;20100;-83
2021/06/22 03:36:56;;;;;;;9.43;2.00;;;15.50;99.90;;;;;;5074987;28;20036;-83
2021/06/22 03:39:22;;;;;;;5.65;1.83;;;15.60;99.90;;;;;;5074721;28;20487;-84
2021/06/22 03:41:47;;;;;;;5.32;1.73;;;15.60;99.90;;;;;;5075325;28;20086;-82
2021/06/22 03:44:13;;;;;;;9.82;1.77;;;15.60;99.90;;;;;;5074680;28;20047;-83
2021/06/22 03:46:42;;;;;;;9.63;2.25;;;15.50;99.90;;;;;;5074964;28;20394;-83
2021/06/22 03:49:08;;;;;;;10.15;1.70;;;15.60;99.90;;;;;;5074614;28;20025;-82
2021/06/22 03:51:34;;;;;;;8.93;2.28;;;15.60;99.90;;;;;;5074896;28;20415;-82
2021/06/22 03:54:00;;;;;;;9.63;2.08;;;15.70;99.90;;;;;;5074801;28;20021;-83
2021/06/22 03:56:26;;;;;;;9.07;2.10;;;15.70;99.90;;;;;;5074868;28;20498;-83
2021/06/22 03:58:52;;;;;;;12.07;2.05;;;15.70;99.90;;;;;;5074810;28;20046;-83
2021/06/22 04:01:18;;;;;;;5.65;1.77;;;15.70;99.90;;;;;;5074605;28;20028;-83
2021/06/22 04:03:44;;;;;;;7.32;1.95;;;15.80;99.90;;;;;;5074700;28;20024;-82
2021/06/22 04:06:09;;;;;;;9.95;2.40;;;15.80;99.90;;;;;;5074888;28;20021;-82
2021/06/22 04:08:36;;;;;;;11.57;2.42;;;15.80;99.90;;;;;;5074610;28;20025;-83
2021/06/22 04:11:03;;;;;;;8.60;2.08;;;15.80;99.90;;;;;;5073453;28;20043;-83
2021/06/22 04:13:29;;;;;;;7.30;1.70;;;15.80;99.90;;;;;;5073842;28;20502;-83
2021/06/22 04:15:54;;;;;;;10.63;2.10;;;15.90;99.90;;;;;;5074048;28;20037;-83
2021/06/22 04:18:23;;;;;;;9.05;1.90;;;15.80;99.90;;;;;;5074117;28;20032;-83
2021/06/22 04:20:49;;;;;;;11.95;2.13;;;15.80;99.90;;;;;;5074311;28;20020;-82
2021/06/22 04:23:15;;;;;;;8.30;1.98;;;15.90;99.90;;;;;;5072863;28;20029;-83
2021/06/22 04:25:41;;;;;;;12.60;2.05;;;15.80;99.90;;;;;;5074363;28;20487;-83
2021/06/22 04:28:06;;;;;;;6.43;1.80;;;15.90;99.90;;;;;;5074395;28;20035;-82
2021/06/22 04:30:34;;;;;;;7.65;1.80;;;15.90;99.90;;;;;;5074046;28;20029;-82
2021/06/22 04:33:00;;;;;;;8.57;1.95;;;16.00;99.90;;;;;;5074027;28;20048;-83
2021/06/22 04:35:29;;;;;;;6.47;1.85;;;15.90;99.90;;;;;;5074003;28;20028;-83
2021/06/22 04:37:56;;;;;;;6.90;2.30;;;15.90;99.90;;;;;;5074002;28;20033;-82
2021/06/22 04:40:21;;;;;;;10.25;2.38;;;15.90;99.90;;;;;;5074151;28;20024;-83
2021/06/22 04:42:47;;;;;;;6.50;2.22;;;15.80;99.90;;;;;;5074132;28;20111;-83
2021/06/22 04:45:13;;;;;;;14.43;2.58;;;15.70;99.90;;;;;;5072101;28;20016;-83
2021/06/22 04:47:38;;;;;;;14.55;2.63;;;15.70;99.90;;;;;;5073471;28;20035;-83
2021/06/22 04:50:05;;;;;;;7.50;2.15;;;15.80;99.90;;;;;;5072722;28;20031;-83
2021/06/22 04:52:32;;;;;;;16.35;2.97;;;15.70;99.90;;;;;;5073649;28;20067;-83
2021/06/22 04:54:58;;;;;;;10.55;2.97;;;15.70;99.90;;;;;;5073891;28;20024;-83
2021/06/22 04:57:24;;;;;;;9.23;2.67;;;15.70;99.90;;;;;;5065712;28;20078;-83
2021/06/22 04:59:50;;;;;;;8.75;2.78;;;15.80;99.90;;;;;;5073206;28;20497;-82
2021/06/22 05:02:15;;;;;;;5.13;2.65;;;15.80;99.90;;;;;;5073259;28;20032;-83
2021/06/22 05:04:41;;;;;;;17.30;2.90;;;15.70;99.90;;;;;;5073529;28;20021;-83
2021/06/22 05:07:07;;;;;;;10.48;2.65;;;15.80;99.90;;;;;;5072718;28;20137;-83
2021/06/22 05:09:33;;;;;;;7.18;2.40;;;15.90;99.90;;;;;;5072176;28;20093;-83
2021/06/22 05:11:58;;;;;;;15.32;2.65;;;15.90;99.90;;;;;;5073430;28;20025;-83
2021/06/22 05:14:24;;;;;;;8.95;2.42;;;16.00;99.90;;;;;;5071944;28;20035;-83
2021/06/22 05:16:50;;;;;;;7.30;2.58;;;16.10;99.90;;;;;;5072507;28;20033;-82
2021/06/22 05:19:18;;;;;;;8.70;2.38;;;16.20;99.90;;;;;;5072498;28;20013;-83
2021/06/22 05:21:44;;;;;;;10.43;2.45;;;16.20;99.90;;;;;;5073120;28;20403;-82
2021/06/22 05:24:11;;;;;;;8.30;2.40;;;16.30;99.90;;;;;;5071430;28;20078;-83
2021/06/22 05:26:37;;;;;;;7.93;2.42;;;16.30;99.90;;;;;;5072647;28;20040;-83
2021/06/22 05:29:03;;;;;;;6.95;2.20;;;16.30;99.90;;;;;;5071550;28;20021;-82
2021/06/22 05:31:29;;;;;;;12.07;2.50;;;16.40;99.90;;;;;;5072813;28;20060;-82
2021/06/22 05:33:55;;;;;;;11.88;2.63;;;16.50;99.90;;;;;;5072779;28;20082;-82
2021/06/22 05:36:21;;;;;;;4.63;1.98;;;16.50;99.90;;;;;;5069944;28;20036;-83
2021/06/22 05:38:47;;;;;;;10.48;2.03;;;16.50;99.90;;;;;;5070833;28;20044;-83
2021/06/22 05:41:13;;;;;;;12.93;2.40;;;16.40;99.90;;;;;;5071827;28;20025;-82
2021/06/22 05:43:38;;;;;;;8.98;2.00;;;16.40;99.90;;;;;;5071269;28;20029;-82
2021/06/22 05:46:04;;;;;;;15.02;2.25;;;16.50;99.90;;;;;;5071326;28;20542;-83
2021/06/22 05:48:30;;;;;;;10.25;2.38;;;16.50;99.90;;;;;;5071256;28;20036;-83
2021/06/22 05:50:56;;;;;;;11.23;2.20;;;16.50;99.90;;;;;;5072500;28;20479;-83
2021/06/22 05:53:22;;;;;;;12.73;2.47;;;16.60;99.90;;;;;;5072342;28;20581;-82
2021/06/22 05:55:49;;;;;;;7.95;1.70;;;16.70;99.90;;;;;;5071998;28;20021;-82
2021/06/22 05:58:14;;;;;;;4.70;1.75;;;16.90;99.90;;;;;;5066823;28;20028;-83
2021/06/22 06:00:40;;;;;;;8.35;1.88;;;17.10;99.90;;;;;;5071074;28;20024;-83
2021/06/22 06:03:06;;;;;;;4.88;1.40;;;17.20;99.90;;;;;;5069642;28;20432;-83
2021/06/22 06:05:33;;;;;;;4.45;1.30;;;17.40;99.90;;;;;;5069311;28;20107;-82
2021/06/22 06:07:58;;;;;;;6.93;1.65;;;17.50;99.90;;;;;;5070974;28;20021;-82
2021/06/22 06:10:24;;;;;;;9.18;1.75;;;17.50;99.90;;;;;;5072000;28;20032;-83
2021/06/22 06:12:51;;;;;;;5.43;1.85;;;17.50;99.90;;;;;;5070121;28;20178;-81
2021/06/22 06:15:17;;;;;;;4.90;1.60;;;17.70;99.90;;;;;;5066780;28;20612;-83
2021/06/22 06:17:43;;;;;;;5.25;1.80;;;17.70;99.90;;;;;;5064263;28;20016;-83
2021/06/22 06:20:11;;;;;;;5.53;1.40;;;17.80;99.90;;;;;;5070699;28;20028;-82
2021/06/22 06:22:38;;;;;;;6.15;1.55;;;17.70;99.90;;;;;;5069896;28;20463;-83
2021/06/22 06:25:05;;;;;;;6.28;2.00;;;17.80;99.90;;;;;;5068157;28;20066;-83
2021/06/22 06:30:12;;;;;;;8.93;2.03;;;17.70;99.90;;;;;;5070800;28;20169;-83
2021/06/22 06:32:38;;;;;;;5.50;1.50;;;17.70;99.90;;;;;;5070307;28;20064;-83
2021/06/22 06:35:05;;;;;;;3.70;1.42;;;17.60;99.90;;;;;;5069256;28;20113;-83
2021/06/22 06:37:31;;;;;;;5.70;1.85;;;17.70;99.90;;;;;;5072851;28;20024;-83
2021/06/22 06:39:56;;;;;;;9.23;1.80;;;17.70;99.90;;;;;;5072255;28;20033;-83
2021/06/22 06:42:22;;;;;;;5.32;1.75;;;18.00;99.90;;;;;;5070144;28;20028;-83
2021/06/22 06:44:48;;;;;;;4.55;1.58;;;18.00;99.90;;;;;;5069058;28;20131;-83
2021/06/22 06:47:13;;;;;;;8.40;1.80;;;18.10;99.90;;;;;;5069692;28;20032;-82
2021/06/22 06:49:39;;;;;;;7.45;1.70;;;18.10;99.90;;;;;;5067612;28;20040;-83
2021/06/22 06:52:06;;;;;;;5.45;1.40;;;18.10;99.90;;;;;;5069081;28;20056;-83
2021/06/22 06:54:32;;;;;;;13.68;1.90;;;18.30;99.90;;;;;;5068944;28;20021;-83
2021/06/22 06:56:58;;;;;;;4.40;1.70;;;18.50;99.90;;;;;;5071449;28;20024;-84
2021/06/22 06:59:23;;;;;;;5.38;1.85;;;18.70;99.90;;;;;;5067459;28;20024;-83
2021/06/22 07:01:50;;;;;;;7.22;1.50;;;18.80;99.90;;;;;;5068203;28;20501;-83
2021/06/22 07:04:15;;;;;;;6.60;1.48;;;19.10;99.90;;;;;;5070240;28;20108;-83
2021/06/22 07:06:41;;;;;;;4.05;1.10;;;19.30;99.90;;;;;;5070845;28;20115;-86
2021/06/22 07:09:08;;;;;;;3.30;1.10;;;19.60;99.90;;;;;;5068483;28;20091;-83
2021/06/22 07:11:34;;;;;;;1.95;1.25;;;19.80;99.90;;;;;;5070418;28;20663;-83
2021/06/22 07:14:00;;;;;;;2.47;1.17;;;19.80;99.90;;;;;;5065928;28;20028;-83
2021/06/22 07:16:26;;;;;;;2.45;1.17;;;19.90;99.90;;;;;;5072828;28;20028;-83
2021/06/22 07:18:52;;;;;;;3.08;1.10;;;19.90;99.90;;;;;;5071757;28;20474;-84
2021/06/22 07:21:19;;;;;;;6.45;1.48;;;19.80;99.90;;;;;;5070779;28;20026;-83
2021/06/22 07:23:45;;;;;;;5.10;1.45;;;19.80;99.90;;;;;;5073810;28;20047;-85
2021/06/22 07:26:11;;;;;;;3.08;1.10;;;19.70;99.90;;;;;;5062113;28;20025;-83
2021/06/22 07:28:37;;;;;;;4.53;1.15;;;20.00;99.90;;;;;;5072292;28;20040;-86
2021/06/22 07:31:04;;;;;;;3.92;1.10;;;20.20;99.90;;;;;;5072989;28;20025;-85
2021/06/22 07:33:30;;;;;;;5.35;1.00;;;20.50;99.90;;;;;;5066020;28;20049;-83
2021/06/22 07:35:55;;;;;;;4.03;1.20;;;22.40;99.90;;;;;;5071634;28;20070;-83
2021/06/22 07:38:21;;;;;;;4.68;1.10;;;23.60;99.90;;;;;;5073753;28;20052;-83
2021/06/22 07:40:47;;;;;;;2.45;0.95;;;24.50;99.90;;;;;;5072605;28;20025;-83
2021/06/22 07:43:14;;;;;;;4.43;1.10;;;23.40;99.90;;;;;;5074154;28;20026;-83
2021/06/22 07:45:41;;;;;;;8.55;2.13;;;23.40;99.90;;;;;;5072091;28;20032;-85
2021/06/22 07:48:08;;;;;;;3.65;1.25;;;24.30;99.90;;;;;;5071311;28;20107;-86
2021/06/22 07:50:33;;;;;;;4.97;1.02;;;25.80;99.40;;;;;;5072179;28;20031;-81
2021/06/22 07:53:01;;;;;;;2.85;1.20;;;25.70;98.30;;;;;;5073760;28;20029;-81
2021/06/22 07:55:31;;;;;;;6.03;1.02;;;24.80;99.60;;;;;;5072387;28;20070;-81
2021/06/22 07:57:57;;;;;;;5.13;1.13;;;23.70;99.90;;;;;;5073410;28;20430;-81
2021/06/22 08:00:38;;;;;;;3.35;1.00;;;22.70;99.90;;;;;;5071948;28;20023;-81
2021/06/22 08:03:06;;;;;;;3.53;1.23;;;21.50;99.90;;;;;;5070145;28;20025;-80
2021/06/22 08:05:31;;;;;;;8.98;1.30;;;20.90;99.90;;;;;;5069534;28;20021;-83
2021/06/22 08:07:57;;;;;;;4.72;1.10;;;21.30;99.90;;;;;;5068976;28;20093;-81
2021/06/22 08:10:23;;;;;;;1.17;1.05;;;21.20;99.90;;;;;;5068440;28;20034;-83
2021/06/22 08:12:48;;;;;;;3.65;1.42;;;21.00;99.90;;;;;;5069893;28;20067;-82
2021/06/22 08:15:14;;;;;;;8.20;1.40;;;21.10;99.90;;;;;;5070070;28;20789;-82
2021/06/22 08:17:40;;;;;;;3.50;1.45;;;24.90;99.90;;;;;;5067327;28;20041;-84
2021/06/22 08:20:06;;;;;;;4.13;0.95;;;27.30;97.20;;;;;;5069644;28;20036;-83
2021/06/22 08:22:32;;;;;;;6.13;1.25;;;27.50;95.30;;;;;;5071348;28;20032;-84
2021/06/22 08:24:58;;;;;;;5.90;1.35;;;27.00;96.50;;;;;;5069109;28;20403;-83
2021/06/22 08:27:24;;;;;;;3.28;0.98;;;28.10;94.10;;;;;;5070939;28;20035;-85
2021/06/22 08:29:49;;;;;;;3.63;1.20;;;27.80;94.50;;;;;;5070891;28;20032;-83
2021/06/22 08:32:15;;;;;;;4.55;1.00;;;25.60;96.80;;;;;;5069809;28;20060;-83
2021/06/22 08:34:41;;;;;;;7.10;1.25;;;23.90;99.90;;;;;;5068983;28;20166;-84
2021/06/22 08:37:06;;;;;;;5.50;1.30;;;22.60;99.90;;;;;;5069415;28;20067;-83
2021/06/22 08:39:34;;;;;;;6.43;1.45;;;22.40;99.90;;;;;;5069352;28;20506;-84
2021/06/22 08:42:01;;;;;;;5.28;1.15;;;24.70;99.90;;;;;;5070771;28;20073;-83
2021/06/22 08:44:29;;;;;;;3.97;1.00;;;25.00;97.50;;;;;;5066350;28;20512;-82
2021/06/22 08:46:57;;;;;;;1.98;0.88;;;23.20;99.90;;;;;;5067219;28;20490;-85
2021/06/22 08:49:24;;;;;;;1.95;0.90;;;23.30;99.90;;;;;;5067459;28;20028;-84
2021/06/22 08:51:51;;;;;;;3.15;1.20;;;23.70;99.90;;;;;;5069589;28;20418;-86
2021/06/22 08:54:17;;;;;;;6.15;1.02;;;25.30;99.80;;;;;;5071135;28;20024;-84
2021/06/22 08:56:43;;;;;;;3.60;1.00;;;26.10;97.30;;;;;;5070820;28;20077;-84
2021/06/22 08:59:08;;;;;;;5.05;1.60;;;25.40;97.40;;;;;;5063118;28;20036;-85
2021/06/22 09:01:34;;;;;;;5.85;1.60;;;26.40;97.40;;;;;;5070985;28;20029;-86
2021/06/22 09:04:00;;;;;;;5.63;0.93;;;29.60;94.30;;;;;;5070304;28;20514;-86
2021/06/22 09:06:26;;;;;;;3.92;1.92;;;29.80;92.20;;;;;;5070857;28;20151;-84
2021/06/22 09:08:54;;;;;;;1.60;0.70;;;28.70;92.60;;;;;;5063341;28;20033;-84
2021/06/22 09:11:29;;;;;;;9.40;1.15;;;26.20;94.30;;;;;;5068721;28;20029;-81
2021/06/22 09:14:06;;;;;;;3.72;0.82;;;24.10;97.90;;;;;;5069064;28;20028;-85
2021/06/22 09:16:33;;;;;;;1.98;0.65;;;23.10;99.80;;;;;;5067472;28;20110;-84
2021/06/22 09:19:07;;;;;;;5.25;0.77;;;23.60;98.90;;;;;;5069957;28;20395;-82
2021/06/22 09:21:44;;;;;;;5.72;0.85;;;23.80;99.30;;;;;;5069654;28;20399;-83
2021/06/22 09:24:26;;;;;;;6.55;0.80;;;25.20;96.40;;;;;;5069234;28;20024;-84
2021/06/22 09:26:53;;;;;;;4.57;1.10;;;24.10;97.60;;;;;;5067700;28;20043;-83
2021/06/22 09:29:20;;;;;;;3.72;0.80;;;24.70;98.80;;;;;;5071050;28;20483;-87
2021/06/22 09:31:58;;;;;;;3.22;1.33;;;27.70;94.60;;;;;;5068797;28;20174;-84
2021/06/22 09:34:25;;;;;;;5.43;1.00;;;30.10;90.50;;;;;;5067733;28;20403;-86
2021/06/22 09:37:05;;;;;;;1.80;1.10;;;30.30;87.80;;;;;;5070175;28;20056;-83
2021/06/22 09:39:30;;;;;;;8.00;1.02;;;30.40;89.40;;;;;;5067571;28;20017;-81
2021/06/22 09:41:57;;;;;;;8.63;1.60;;;28.40;89.00;;;;;;5070750;28;20098;-85
2021/06/22 09:44:25;;;;;;;3.80;1.10;;;27.60;92.20;;;;;;5067684;28;20024;-82
2021/06/22 09:46:56;;;;;;;4.20;1.02;;;27.20;91.70;;;;;;5069571;28;20524;-83
2021/06/22 09:49:23;;;;;;;11.05;1.80;;;29.10;90.30;;;;;;5068406;28;20021;-84
2021/06/22 09:54:30;;;;;;;4.25;1.00;;;29.90;84.10;;;;;;5068231;28;20060;-85
2021/06/22 09:57:06;;;;;;;1.60;1.15;;;27.50;90.40;;;;;;5069354;28;20127;-84
2021/06/22 09:59:51;;;;;;;3.47;1.42;;;28.20;90.40;;;;;;5068185;28;20012;-82
2021/06/22 10:02:18;;;;;;;1.63;1.00;;;30.50;85.60;;;;;;5069145;28;20031;-86
2021/06/22 10:04:46;;;;;;;5.55;1.40;;;30.10;87.50;;;;;;5068738;28;20060;-85
2021/06/22 10:07:14;;;;;;;4.25;1.30;;;29.80;88.40;;;;;;5069160;28;20415;-85
2021/06/22 10:09:40;;;;;;;3.28;1.40;;;30.00;87.40;;;;;;5068349;28;20066;-85
2021/06/22 10:12:12;;;;;;;1.38;0.90;;;30.30;84.20;;;;;;5068409;28;20103;-84
2021/06/22 10:14:43;;;;;;;2.67;0.90;;;29.50;83.90;;;;;;5067559;28;20082;-86
2021/06/22 10:17:13;;;;;;;1.48;0.60;;;29.40;85.60;;;;;;5068922;28;20039;-83
2021/06/22 10:19:40;;;;;;;3.15;0.60;;;28.30;86.50;;;;;;5064130;28;20029;-86
2021/06/22 10:22:06;;;;;;;7.70;1.20;;;26.60;89.80;;;;;;5069339;28;20021;-86
2021/06/22 10:24:34;;;;;;;7.68;1.00;;;26.90;91.10;;;;;;5070348;28;20028;-82
2021/06/22 10:27:02;;;;;;;4.68;1.10;;;26.20;92.10;;;;;;5067574;28;20021;-82
2021/06/22 10:29:28;;;;;;;6.00;1.30;;;26.10;93.10;;;;;;5070822;28;20067;-88
2021/06/22 10:31:56;;;;;;;7.38;0.95;;;28.00;90.60;;;;;;5068404;28;20036;-83
2021/06/22 10:34:23;;;;;;;4.43;1.00;;;28.20;90.70;;;;;;5068399;28;20455;-83
2021/06/22 10:37:12;;;;;;;3.25;1.40;;;27.20;92.10;;;;;;5068480;28;20517;-83
2021/06/22 10:39:59;;;;;;;7.82;1.40;;;28.30;90.90;;;;;;5069346;28;20025;-84
2021/06/22 10:42:37;;;;;;;1.88;0.70;;;29.80;90.40;;;;;;5069373;28;20063;-83
2021/06/22 10:45:04;;;;;;;4.15;0.98;;;28.00;90.80;;;;;;5067748;28;20518;-81
2021/06/22 10:47:31;;;;;;;3.38;0.85;;;26.90;92.70;;;;;;5065567;28;20102;-85
2021/06/22 10:50:21;;;;;;;1.95;0.90;;;25.40;93.40;;;;;;5070891;28;20041;-86
2021/06/22 10:52:51;;;;;;;1.55;1.10;;;25.90;95.40;;;;;;5071094;28;20099;-83
2021/06/22 10:55:22;;;;;;;4.53;1.40;;;28.90;92.50;;;;;;5073344;28;20025;-84
2021/06/22 10:58:00;;;;;;;3.28;0.90;;;30.10;89.80;;;;;;5073721;28;20490;-83
2021/06/22 11:00:28;;;;;;;3.63;0.90;;;29.40;91.10;;;;;;5073790;28;20020;-86
2021/06/22 11:03:05;;;;;;;4.18;1.10;;;27.90;91.80;;;;;;5072746;28;20016;-87
2021/06/22 11:05:34;;;;;;;5.43;1.80;;;27.00;94.40;;;;;;5072335;28;20020;-83
2021/06/22 11:08:10;;;;;;;5.95;1.48;;;26.90;95.70;;;;;;5072734;28;20021;-86
2021/06/22 11:10:55;;;;;;;2.45;1.00;;;27.60;94.40;;;;;;5073495;28;20033;-83
2021/06/22 11:13:39;;;;;;;3.60;1.00;;;27.50;92.20;;;;;;5073063;28;20406;-83
2021/06/22 11:16:26;;;;;;;4.63;1.50;;;27.10;90.90;;;;;;5072538;28;20028;-86
2021/06/22 11:21:32;;;;;;;7.00;1.42;;;25.30;95.70;;;;;;5068286;28;20025;-82
2021/06/22 11:24:15;;;;;;;5.15;1.42;;;24.00;97.60;;;;;;5072300;28;20020;-83
2021/06/22 11:26:49;;;;;;;8.25;2.17;;;22.80;99.90;;;;;;5071550;28;20062;-84
2021/06/22 11:29:18;;;;;;;11.88;2.13;;;21.70;99.90;;;;;;5071241;28;20038;-83
2021/06/22 11:31:56;;;;;;;12.52;2.60;;;21.10;99.90;;;;;;5072286;28;20117;-81
2021/06/22 11:34:28;;;;;;;19.25;3.30;;;20.30;99.90;;;;;;5068386;28;20020;-84
2021/06/22 11:37:07;;;;;;;7.43;1.58;;;19.60;99.90;;;;;;5072329;28;20369;-81
2021/06/22 11:39:34;;;;;;;11.65;2.45;;;18.90;99.90;;;;;;5071803;28;20210;-83
2021/06/22 11:44:44;;;;;;;4.55;1.95;;;18.10;99.90;;;;;;5068253;28;20159;-82
2021/06/22 11:47:30;;;;;;;3.33;1.88;;;18.00;99.90;;;;;;5068010;28;20032;-82
2021/06/22 11:50:00;;;;;;;8.75;2.00;;;18.00;99.90;;;;;;5069892;28;20441;-82
2021/06/22 11:52:33;;;;;;;6.00;2.25;;;17.90;99.90;;;;;;5071761;28;20028;-84
2021/06/22 11:55:21;;;;;;;14.45;1.77;;;18.00;99.90;;;;;;5071072;28;20031;-84
2021/06/22 11:57:49;;;;;;;3.40;1.70;;;18.10;99.90;;;;;;5071983;28;20023;-85
2021/06/22 12:00:33;;;;;;;5.03;1.23;;;18.10;99.90;;;;;;5069950;28;20395;-83
2021/06/22 12:03:02;;;;;;;6.13;1.80;;;18.10;99.90;;;;;;5070751;28;20158;-84
2021/06/22 12:05:29;;;;;;;4.47;1.98;;;18.10;99.90;;;;;;5071749;28;20387;-83
2021/06/22 12:07:57;;;;;;;6.65;2.55;;;18.20;99.90;;;;;;5071339;28;20078;-83
2021/06/22 12:10:26;;;;;;;4.45;2.88;;;18.30;99.90;;;;;;5071485;28;20028;-82
2021/06/22 12:12:52;;;;;;;6.45;3.10;;;18.30;99.90;;;;;;5070839;28;20040;-83
2021/06/22 12:15:30;;;;;;;4.13;2.13;;;18.50;99.90;;;;;;5071753;28;20021;-85
2021/06/22 12:17:55;;;;;;;3.90;1.27;;;18.50;99.90;;;;;;5070368;28;20074;-85
2021/06/22 12:20:22;;;;;;;6.22;1.20;;;18.40;99.90;;;;;;5070792;28;20463;-84
2021/06/22 12:23:06;;;;;;;2.45;1.13;;;18.30;99.90;;;;;;5068153;28;20066;-84
2021/06/22 12:25:49;;;;;;;4.20;0.90;;;18.30;99.90;;;;;;5072492;28;20112;-85
2021/06/22 12:28:15;;;;;;;0.90;0.70;;;18.20;99.90;;;;;;5067620;28;20039;-84
2021/06/22 12:30:42;;;;;;;1.77;0.90;;;18.20;99.90;;;;;;5070283;28;20028;-84
2021/06/22 12:33:08;;;;;;;3.13;0.60;;;18.30;99.90;;;;;;5069028;28;20056;-84
2021/06/22 12:35:33;;;;;;;1.00;0.90;;;18.10;99.90;;;;;;5071317;28;20024;-84
2021/06/22 12:38:10;;;;;;;1.35;0.77;;;18.20;99.90;;;;;;5070906;28;20157;-85
2021/06/22 12:40:42;;;;;;;1.27;0.65;;;18.20;99.90;;;;;;5071617;28;20104;-84
2021/06/22 12:43:08;;;;;;;1.08;0.88;;;18.30;99.90;;;;;;5071410;28;20020;-82
2021/06/22 12:45:34;;;;;;;0.93;0.60;;;18.70;99.90;;;;;;5072793;28;20084;-84
2021/06/22 12:48:00;;;;;;;0.77;0.52;;;19.80;99.90;;;;;;5069646;28;20051;-86
2021/06/22 12:50:34;;;;;;;1.20;0.60;;;21.40;99.90;;;;;;5071042;28;20039;-85
2021/06/22 12:53:00;;;;;;;2.45;0.50;;;22.10;99.90;;;;;;5069351;28;20020;-83
2021/06/22 12:56:04;;;;;;;3.22;0.55;;;21.60;99.90;;;;;;5070080;28;20025;-85
2021/06/22 12:58:24;;;;;;;2.92;0.52;;;21.10;99.90;;;;;;5071177;28;20397;-82
2021/06/22 13:00:50;;;;;;;1.38;0.60;;;20.80;99.90;;;;;;5071137;28;20482;-85